Station History

Weather Underground - logo

Station Historical Data
Daily Summary for December 27, 2017 Units:  Metric    English   Both
« Previous Day
Next Day »
Daily Weekly Monthly Yearly Custom
  High: Low: Average:
Temperature: -17.8 °C 1.3 °C 8 °C
Dew Point: -17.8 °C -0.1 °C 3.3 °C
Humidity: Humidity % 47 % 74 %
Wind Speed: 0 km/h 0 km/h 0.6 km/h
Wind Gust: 0 km/h - -
Wind:- - WSW
Pressure: 0 hPa 1024.3 hPa -
Precipitation: 0 mm    
Historical Graphs
 
 
Tabular Data for December 27, 2017
Time Temperature Dew Point Pressure Wind Wind Speed Wind Gust Humidity Rainfall Rate (Hourly)
-17.8 °C -17.8 °C 0 hPa Calm     Humidity % 0 mm
00:00 6.1 °C 3.1 °C 1024.6 hPa Calm     81 % 0 mm
00:05 6 °C 2.8 °C 1024.6 hPa Calm     80 % 0 mm
00:06 6 °C 2.8 °C 1024.6 hPa Calm     80 % 0 mm
00:07 6 °C 2.8 °C 1024.6 hPa Calm     80 % 0 mm
00:12 5.9 °C 2.9 °C 1024.6 hPa Calm     81 % 0 mm
00:13 5.9 °C 2.9 °C 1024.6 hPa Calm     81 % 0 mm
00:18 5.9 °C 2.9 °C 1024.6 hPa Calm     81 % 0 mm
00:23 5.7 °C 2.7 °C 1024.6 hPa Calm     81 % 0 mm
00:24 5.6 °C 2.6 °C 1024.6 hPa Calm     81 % 0 mm
00:29 5.2 °C 2.2 °C 1024.6 hPa Calm     81 % 0 mm
00:31 5 °C 2.2 °C 1024.6 hPa Calm     82 % 0 mm
00:36 4.4 °C 1.8 °C 1024.6 hPa Calm     83 % 0 mm
00:41 4.1 °C 1.7 °C 1024.6 hPa Calm     84 % 0 mm
00:46 3.9 °C 1.7 °C 1024.6 hPa Calm     85 % 0 mm
00:48 3.8 °C 1.5 °C 1024.6 hPa Calm     85 % 0 mm
00:53 3.6 °C 1.5 °C 1024.6 hPa Calm     86 % 0 mm
00:58 3.4 °C 1.3 °C 1024.6 hPa Calm     86 % 0 mm
00:59 3.4 °C 1.5 °C 1024.6 hPa Calm     87 % 0 mm
01:00 3.4 °C 1.4 °C 1024.6 hPa Calm     87 % 0 mm
01:05 3.3 °C 1.3 °C 1024.6 hPa Calm     87 % 0 mm
01:08 3.3 °C 1.3 °C 1024.6 hPa Calm     87 % 0 mm
01:11 3.3 °C 1.5 °C 1024.6 hPa Calm     88 % 0 mm
01:13 3.3 °C 1.5 °C 1024.6 hPa Calm     88 % 0 mm
01:17 3.2 °C 1.4 °C 1024.6 hPa Calm     88 % 0 mm
01:22 3.2 °C 1.4 °C 1024.6 hPa Calm     88 % 0 mm
01:23 3.2 °C 1.6 °C 1024.9 hPa Calm     89 % 0 mm
01:25 3.2 °C 1.4 °C 1024.9 hPa Calm     88 % 0 mm
01:28 3.2 °C 1.4 °C 1024.9 hPa Calm     88 % 0 mm
01:33 3.2 °C 1.6 °C 1024.9 hPa Calm     89 % 0 mm
01:34 3.2 °C 1.6 °C 1024.9 hPa Calm     89 % 0 mm
01:38 3.2 °C 1.6 °C 1025.3 hPa Calm     89 % 0 mm
01:43 3.2 °C 1.6 °C 1025.3 hPa Calm     89 % 0 mm
01:44 3.2 °C 1.6 °C 1025.3 hPa Calm     89 % 0 mm
01:49 3.1 °C 1.5 °C 1025.3 hPa Calm     89 % 0 mm
01:50 3.1 °C 1.5 °C 1024.9 hPa Calm     89 % 0 mm
01:56 3.1 °C 1.4 °C 1025.3 hPa Calm     89 % 0 mm
02:01 3.1 °C 1.4 °C 1025.3 hPa Calm     89 % 0 mm
02:03 3 °C 1.4 °C 1025.3 hPa Calm     89 % 0 mm
02:07 3 °C 1.4 °C 1025.3 hPa Calm     89 % 0 mm
02:12 3.1 °C 1.6 °C 1025.6 hPa Calm     90 % 0 mm
02:13 3.1 °C 1.6 °C 1025.6 hPa Calm     90 % 0 mm
02:18 3.2 °C 1.7 °C 1025.6 hPa Calm     90 % 0 mm
02:21 3.2 °C 1.7 °C 1025.6 hPa Calm     90 % 0 mm
02:26 3.3 °C 1.8 °C 1025.6 hPa Calm     90 % 0 mm
02:27 3.4 °C 1.9 °C 1025.6 hPa Calm     90 % 0 mm
02:32 3.6 °C 1.9 °C 1025.6 hPa Calm     89 % 0 mm
02:33 3.6 °C 1.9 °C 1025.6 hPa Calm     89 % 0 mm
02:38 3.8 °C 2 °C 1025.6 hPa Calm     88 % 0 mm
02:39 3.8 °C 2 °C 1025.6 hPa Calm     88 % 0 mm
02:41 3.8 °C 2 °C 1025.6 hPa Calm     88 % 0 mm
02:46 3.9 °C 2.1 °C 1025.6 hPa Calm     88 % 0 mm
02:51 3.8 °C 1.9 °C 1025.6 hPa Calm     87 % 0 mm
02:56 3.4 °C 1.5 °C 1025.6 hPa Calm     87 % 0 mm
02:59 3.3 °C 1.3 °C 1025.3 hPa Calm     87 % 0 mm
03:03 3.1 °C 1.2 °C 1025.3 hPa Calm     87 % 0 mm
03:08 2.9 °C 0.9 °C 1025.3 hPa Calm     87 % 0 mm
03:09 2.8 °C 1.1 °C 1025.3 hPa Calm     88 % 0 mm
03:14 2.7 °C 0.9 °C 1025.3 hPa Calm     88 % 0 mm
03:18 2.6 °C 0.8 °C 1025.3 hPa Calm     88 % 0 mm
03:23 2.5 °C 0.9 °C 1025.3 hPa Calm     89 % 0 mm
03:28 2.3 °C 0.7 °C 1025.3 hPa Calm     89 % 0 mm
03:29 2.3 °C 0.7 °C 1025.3 hPa Calm     89 % 0 mm
03:30 2.3 °C 0.7 °C 1024.9 hPa Calm     89 % 0 mm
03:32 2.2 °C 0.6 °C 1024.9 hPa Calm     89 % 0 mm
03:35 2.2 °C 0.8 °C 1024.9 hPa Calm     90 % 0 mm
03:40 2.2 °C 0.8 °C 1024.9 hPa Calm     90 % 0 mm
03:41 2.2 °C 0.8 °C 1024.9 hPa Calm     90 % 0 mm
03:46 2.2 °C 0.9 °C 1024.9 hPa Calm     91 % 0 mm
03:47 2.3 °C 0.9 °C 1025.3 hPa Calm     91 % 0 mm
03:53 2.3 °C 1 °C 1025.3 hPa Calm     91 % 0 mm
03:56 2.3 °C 1 °C 1025.3 hPa Calm     91 % 0 mm
04:00 2.3 °C 0.9 °C 1025.3 hPa Calm     91 % 0 mm
04:05 2.4 °C 0.9 °C 1025.3 hPa Calm     90 % 0 mm
04:06 2.4 °C 0.9 °C 1024.9 hPa Calm     90 % 0 mm
04:11 2.4 °C 0.9 °C 1025.3 hPa Calm     90 % 0 mm
04:14 2.4 °C 0.9 °C 1025.3 hPa Calm     90 % 0 mm
04:19 2.4 °C 0.9 °C 1025.3 hPa Calm     90 % 0 mm
04:24 2.4 °C 0.8 °C 1024.9 hPa Calm     89 % 0 mm
04:27 2.3 °C 0.7 °C 1024.9 hPa Calm     89 % 0 mm
04:30 2.3 °C 0.7 °C 1024.9 hPa Calm     89 % 0 mm
04:33 2.2 °C 0.6 °C 1024.9 hPa Calm     89 % 0 mm
04:38 2.2 °C 0.6 °C 1024.9 hPa Calm     89 % 0 mm
04:39 2.2 °C 0.6 °C 1024.9 hPa Calm     89 % 0 mm
04:44 2.1 °C 0.5 °C 1024.9 hPa Calm     89 % 0 mm
04:49 2.1 °C 0.4 °C 1025.3 hPa Calm     89 % 0 mm
04:50 2 °C 0.4 °C 1025.3 hPa Calm     89 % 0 mm
04:54 2.1 °C 0.4 °C 1024.9 hPa Calm     89 % 0 mm
04:56 2.1 °C 0.4 °C 1024.9 hPa Calm     89 % 0 mm
05:01 2.1 °C 0.6 °C 1025.3 hPa Calm     90 % 0 mm
05:06 2.2 °C 0.8 °C 1025.3 hPa NNE 1.9 km/h   90 % 0 mm
05:08 2.2 °C 0.8 °C 1025.3 hPa Calm     90 % 0 mm
05:11 2.3 °C 0.7 °C 1025.3 hPa Calm     89 % 0 mm
05:13 2.3 °C 0.7 °C 1025.3 hPa Calm     89 % 0 mm
05:16 2.3 °C 0.8 °C 1025.3 hPa Calm     90 % 0 mm
05:20 2.3 °C 0.8 °C 1025.3 hPa Calm     90 % 0 mm
05:23 2.2 °C 0.7 °C 1025.3 hPa Calm     90 % 0 mm
05:26 2.1 °C 0.6 °C 1025.3 hPa Calm     90 % 0 mm
05:29 2 °C 0.6 °C 1025.3 hPa Calm     90 % 0 mm
05:33 2 °C 0.6 °C 1025.3 hPa Calm     90 % 0 mm
05:35 2 °C 0.6 °C 1025.3 hPa Calm     90 % 0 mm
05:40 2.1 °C 0.7 °C 1025.3 hPa Calm     90 % 0 mm
05:45 2.1 °C 0.7 °C 1025.6 hPa Calm     90 % 0 mm
05:49 2.2 °C 0.7 °C 1025.6 hPa Calm     90 % 0 mm
05:51 2.2 °C 0.8 °C 1025.6 hPa Calm     90 % 0 mm
05:56 2.2 °C 0.6 °C 1025.6 hPa Calm     89 % 0 mm
06:01 2.1 °C 0.5 °C 1025.6 hPa Calm     89 % 0 mm
06:06 1.9 °C 0.3 °C 1026 hPa NNE 1.9 km/h   89 % 0 mm
06:08 1.8 °C 0.2 °C 1026 hPa Calm     89 % 0 mm
06:13 1.6 °C -0.1 °C 1026 hPa Calm     89 % 0 mm
06:15 1.6 °C 0.1 °C 1026 hPa Calm     90 % 0 mm
06:20 1.4 °C 0 °C 1026 hPa Calm     90 % 0 mm
06:25 1.4 °C 0.1 °C 1026 hPa Calm     91 % 0 mm
06:30 1.6 °C 0.2 °C 1026 hPa Calm     91 % 0 mm
06:34 1.6 °C 0.2 °C 1026 hPa Calm     91 % 0 mm
06:39 1.6 °C 0.4 °C 1026 hPa Calm     92 % 0 mm
06:40 1.7 °C 0.5 °C 1026 hPa Calm     92 % 0 mm
06:45 1.8 °C 0.7 °C 1026.3 hPa Calm     92 % 0 mm
06:50 1.9 °C 0.6 °C 1026.3 hPa Calm     91 % 0 mm
06:51 1.9 °C 0.6 °C 1026.3 hPa Calm     91 % 0 mm
06:56 1.9 °C 0.6 °C 1026.3 hPa Calm     91 % 0 mm
06:57 1.9 °C 0.6 °C 1026.3 hPa Calm     91 % 0 mm
07:02 1.9 °C 0.4 °C 1026.3 hPa Calm     90 % 0 mm
07:04 1.8 °C 0.4 °C 1026.3 hPa Calm     90 % 0 mm
07:05 1.8 °C 0.4 °C 1026.3 hPa Calm     90 % 0 mm
07:10 1.8 °C 0.4 °C 1026.3 hPa Calm     91 % 0 mm
07:15 1.7 °C 0.4 °C 1026.3 hPa Calm     91 % 0 mm
07:20 1.6 °C 0.2 °C 1026.3 hPa Calm     90 % 0 mm
07:22 1.6 °C 0.1 °C 1026.3 hPa Calm     90 % 0 mm
07:27 1.4 °C 0 °C 1026.3 hPa Calm     90 % 0 mm
07:28 1.4 °C -0.1 °C 1026.3 hPa Calm     90 % 0 mm
07:29 1.3 °C -0.1 °C 1026.3 hPa Calm     90 % 0 mm
07:34 1.4 °C 0.1 °C 1026.3 hPa Calm     91 % 0 mm
07:35 1.4 °C 0.1 °C 1026.3 hPa Calm     91 % 0 mm
07:38 1.5 °C 0.2 °C 1026.3 hPa Calm     91 % 0 mm
07:43 1.6 °C 0.3 °C 1026.3 hPa Calm     91 % 0 mm
07:44 1.6 °C 0.4 °C 1026.3 hPa Calm     92 % 0 mm
07:47 1.7 °C 0.6 °C 1026.3 hPa Calm     92 % 0 mm
07:49 1.8 °C 0.7 °C 1026.3 hPa Calm     92 % 0 mm
07:54 2 °C 0.8 °C 1026.3 hPa Calm     92 % 0 mm
07:56 2.1 °C 0.9 °C 1026.3 hPa Calm     92 % 0 mm
08:01 2.4 °C 1.2 °C 1026.6 hPa Calm     92 % 0 mm
08:03 2.6 °C 1.4 °C 1026.6 hPa Calm     92 % 0 mm
08:08 2.9 °C 1.6 °C 1026.6 hPa Calm     91 % 0 mm
08:13 3.5 °C 2.2 °C 1026.6 hPa Calm     91 % 0 mm
08:14 3.6 °C 2.2 °C 1026.3 hPa Calm     91 % 0 mm
08:17 3.8 °C 2.3 °C 1026.6 hPa Calm     90 % 0 mm
08:19 4.2 °C 2.5 °C 1026.6 hPa Calm     89 % 0 mm
08:24 4.7 °C 2.8 °C 1026.6 hPa Calm     88 % 0 mm
08:26 4.9 °C 3.1 °C 1026.6 hPa Calm     88 % 0 mm
08:31 5.5 °C 3 °C 1026.6 hPa Calm     84 % 0 mm
08:36 5.6 °C 3.1 °C 1027 hPa Calm     84 % 0 mm
08:41 6 °C 3.7 °C 1027 hPa Calm     85 % 0 mm
08:46 6.4 °C 3.8 °C 1027 hPa Calm     83 % 0 mm
08:48 6.6 °C 3.9 °C 1027 hPa Calm     83 % 0 mm
08:53 6.9 °C 4.3 °C 1027.3 hPa Calm     83 % 0 mm
08:55 7.1 °C 4.2 °C 1027.3 hPa Calm     82 % 0 mm
09:00 7.5 °C 3.9 °C 1027.3 hPa NNE 1.9 km/h   78 % 0 mm
09:05 7.8 °C 4.1 °C 1027.3 hPa Calm     77 % 0 mm
09:07 7.9 °C 3.9 °C 1027.3 hPa Calm     76 % 0 mm
09:11 8.2 °C 4.2 °C 1027.7 hPa Calm     76 % 0 mm
09:13 8.3 °C 4.2 °C 1027.3 hPa Calm     75 % 0 mm
09:18 9 °C 4.4 °C 1027.3 hPa Calm     73 % 0 mm
09:19 9.2 °C 4.6 °C 1027.3 hPa NE 1.6 km/h   73 % 0 mm
09:25 9.7 °C 4.4 °C 1027.3 hPa East 1.9 km/h 1.9 km/h 70 % 0 mm
09:26 9.7 °C 4.5 °C 1027.3 hPa Calm     70 % 0 mm
09:31 10 °C 4.6 °C 1027.3 hPa ESE 1.9 km/h   69 % 0 mm
09:35 10.2 °C 4.8 °C 1027.3 hPa Calm     69 % 0 mm
09:36 10.3 °C 4.8 °C 1027.3 hPa Calm     69 % 0 mm
09:41 10.6 °C 4.4 °C 1027.3 hPa Calm     66 % 0 mm
09:44 10.5 °C 4.4 °C 1027.7 hPa Calm     66 % 0 mm
09:49 10.4 °C 4.6 °C 1027.7 hPa Calm     67 % 0 mm
09:50 10.5 °C 4.6 °C 1027.7 hPa Calm     67 % 0 mm
09:55 10.7 °C 4.3 °C 1027.3 hPa NW 1.9 km/h   65 % 0 mm
09:56 10.7 °C 4.4 °C 1027.7 hPa Calm     65 % 0 mm
10:00 10.9 °C 4.4 °C 1027.7 hPa Calm     64 % 0 mm
10:03 11.2 °C 4.6 °C 1027.7 hPa Calm     64 % 0 mm
10:08 11.2 °C 4.4 °C 1027.7 hPa Calm     63 % 0 mm
10:09 11.2 °C 4.4 °C 1027.7 hPa SW 1.9 km/h   63 % 0 mm
10:14 11.6 °C 4.3 °C 1027.7 hPa West 1.9 km/h 1.9 km/h 61 % 0 mm
10:16 11.5 °C 4.2 °C 1027.3 hPa Calm     61 % 0 mm
10:21 11.4 °C 4.4 °C 1027.3 hPa Calm     62 % 0 mm
10:26 11.6 °C 4.1 °C 1027.3 hPa Calm     60 % 0 mm
10:27 11.7 °C 4.2 °C 1027.3 hPa NW 1.9 km/h 1.9 km/h 60 % 0 mm
10:32 12 °C 4.4 °C 1027.3 hPa Calm     60 % 0 mm
10:37 12.3 °C 4.7 °C 1027.3 hPa Calm     60 % 0 mm
10:42 12.3 °C 4.1 °C 1027 hPa West 3.7 km/h   57 % 0 mm
10:48 12.6 °C 4.8 °C 1027 hPa Calm     59 % 0 mm
10:49 12.7 °C 4.9 °C 1027 hPa Calm     59 % 0 mm
10:54 12.8 °C 4.4 °C 1027 hPa WNW 1.9 km/h 1.9 km/h 57 % 0 mm
10:59 12.8 °C 4.5 °C 1027 hPa Calm     57 % 0 mm
11:03 13.1 °C 4.4 °C 1027 hPa Calm     56 % 0 mm
11:08 13.5 °C 4.9 °C 1027 hPa SE 3.7 km/h 3.7 km/h 56 % 0 mm
11:12 13.7 °C 5.1 °C 1026.6 hPa Calm     56 % 0 mm
11:17 13.7 °C 4.8 °C 1026.6 hPa Calm     55 % 0 mm
11:22 13.6 °C 4.7 °C 1026.6 hPa SE 1.9 km/h 1.9 km/h 55 % 0 mm
11:27 13.8 °C 4.4 °C 1026.6 hPa NW 3.7 km/h 3.7 km/h 53 % 0 mm
11:29 13.9 °C 4.4 °C 1026.6 hPa Calm     53 % 0 mm
11:34 13.8 °C 4.4 °C 1026.6 hPa South 4.8 km/h 4.8 km/h 53 % 0 mm
11:39 14.2 °C 5.1 °C 1026.3 hPa South 3.7 km/h 3.7 km/h 54 % 0 mm
11:40 14.2 °C 5.1 °C 1026.3 hPa SSE 1.9 km/h 1.9 km/h 54 % 0 mm
11:45 14.3 °C 5.2 °C 1026.3 hPa South 1.9 km/h 1.9 km/h 54 % 0 mm
11:50 14.7 °C 5.7 °C 1026.3 hPa SSE 1.9 km/h   55 % 0 mm
11:51 14.7 °C 5.7 °C 1026.3 hPa Calm     55 % 0 mm
11:53 14.7 °C 5.2 °C 1026.3 hPa SSE 1.9 km/h 1.9 km/h 53 % 0 mm
11:57 14.7 °C 5.8 °C 1026.3 hPa Calm     55 % 0 mm
12:02 14.7 °C 5.2 °C 1026 hPa SSW 1.9 km/h 1.9 km/h 53 % 0 mm
12:07 14.7 °C 5.2 °C 1026 hPa SE 3.7 km/h 3.7 km/h 53 % 0 mm
12:12 14.8 °C 5.3 °C 1026 hPa NNW 3.7 km/h 3.7 km/h 53 % 0 mm
12:13 14.8 °C 5.1 °C 1026 hPa WNW 1.9 km/h 1.9 km/h 52 % 0 mm
12:18 14.9 °C 5.1 °C 1025.6 hPa NW 3.7 km/h 3.7 km/h 52 % 0 mm
12:19 14.8 °C 5.1 °C 1025.6 hPa NW 1.9 km/h 1.9 km/h 52 % 0 mm
12:21 14.8 °C 5.1 °C 1025.6 hPa NW 1.9 km/h 1.9 km/h 52 % 0 mm
12:26 14.9 °C 5.4 °C 1025.6 hPa West 1.9 km/h 1.9 km/h 53 % 0 mm
12:27 15 °C 5.8 °C 1025.6 hPa West 3.7 km/h 3.7 km/h 54 % 0 mm
12:32 15 °C 5.5 °C 1025.3 hPa NW 3.7 km/h 3.7 km/h 53 % 0 mm
12:36 15.1 °C 5.6 °C 1025.3 hPa NNE 3.2 km/h 3.2 km/h 53 % 0 mm
12:41 15 °C 5.2 °C 1025.3 hPa WNW 3.7 km/h 3.7 km/h 52 % 0 mm
12:46 14.9 °C 5.1 °C 1025.3 hPa West 1.9 km/h 1.9 km/h 52 % 0 mm
12:50 15 °C 5.8 °C 1025.3 hPa NNW 1.6 km/h 1.6 km/h 54 % 0 mm
12:51 15.1 °C 5.9 °C 1024.9 hPa WNW 1.9 km/h 1.9 km/h 54 % 0 mm
12:56 15.3 °C 5.5 °C 1024.9 hPa SSW 1.9 km/h 1.9 km/h 52 % 0 mm
12:57 15.3 °C 5.5 °C 1024.9 hPa SSW 1.9 km/h 1.9 km/h 52 % 0 mm
12:58 15.3 °C 5.5 °C 1024.9 hPa Calm   0.2 km/h 52 % 0 mm
13:04 15.6 °C 6 °C 1024.6 hPa West 1.6 km/h   53 % 0 mm
13:06 15.6 °C 5.2 °C 1024.6 hPa WNW 3.7 km/h 3.7 km/h 50 % 0 mm
13:11 15.4 °C 5.6 °C 1024.6 hPa NW 3.2 km/h 3.2 km/h 52 % 0 mm
13:16 15.6 °C 5.4 °C 1024.6 hPa NW 1.9 km/h   51 % 0 mm
13:17 15.5 °C 5.4 °C 1024.6 hPa NW 1.9 km/h   51 % 0 mm
13:22 15.6 °C 5.4 °C 1024.6 hPa SE 1.9 km/h 1.9 km/h 51 % 0 mm
13:27 15.7 °C 5.9 °C 1024.3 hPa NE 1.9 km/h 1.9 km/h 52 % 0 mm
13:28 15.7 °C 5.6 °C 1024.3 hPa NE 1.9 km/h 1.9 km/h 51 % 0 mm
13:32 15.8 °C 6 °C 1024.3 hPa South 1.9 km/h 1.9 km/h 52 % 0 mm
13:37 16 °C 6.2 °C 1024.3 hPa Calm     52 % 0 mm
13:38 16 °C 6.2 °C 1024.3 hPa SE 1.9 km/h   52 % 0 mm
13:43 16.1 °C 5.7 °C 1024.3 hPa Calm     50 % 0 mm
13:44 16.1 °C 5.9 °C 1024.3 hPa Calm     51 % 0 mm
13:49 16.2 °C 5.8 °C 1024.3 hPa Calm     50 % 0 mm
13:50 16.3 °C 6.1 °C 1024.3 hPa Calm     51 % 0 mm
13:53 16.4 °C 5.9 °C 1024.3 hPa SSE 1.9 km/h   50 % 0 mm
13:58 16.5 °C 5.7 °C 1024.3 hPa Calm     49 % 0 mm
14:00 16.5 °C 5.4 °C 1024.3 hPa NW 1.9 km/h 1.9 km/h 48 % 0 mm
14:03 16.3 °C 5.3 °C 1024.3 hPa WNW 3.7 km/h 3.7 km/h 48 % 0 mm
14:08 16.2 °C 4.8 °C 1024.6 hPa NW 1.9 km/h   47 % 0 mm
14:09 16.2 °C 5.1 °C 1024.6 hPa Calm     48 % 0 mm
14:14 16.1 °C 5.4 °C 1024.6 hPa NW 5.6 km/h 5.6 km/h 49 % 0 mm
14:19 16.1 °C 5.3 °C 1024.6 hPa NW 1.9 km/h 1.9 km/h 49 % 0 mm
14:21 16.1 °C 5.3 °C 1024.6 hPa NW 3.7 km/h 3.7 km/h 49 % 0 mm
14:26 15.9 °C 5.2 °C 1024.6 hPa NW 3.7 km/h 3.7 km/h 49 % 0 mm
14:29 15.9 °C 5.2 °C 1024.6 hPa WNW 1.6 km/h   49 % 0 mm
14:32 15.9 °C 5.5 °C 1024.6 hPa WNW 1.9 km/h 1.9 km/h 50 % 0 mm
14:36 16.1 °C 5.3 °C 1024.6 hPa NW 3.7 km/h 3.7 km/h 49 % 0 mm
14:41 16.1 °C 5.1 °C 1024.6 hPa NW 3.7 km/h 3.7 km/h 48 % 0 mm
14:42 16.2 °C 5.4 °C 1024.6 hPa WNW 3.7 km/h 3.7 km/h 49 % 0 mm
14:45 16.2 °C 5.1 °C 1024.6 hPa WNW 1.9 km/h 1.9 km/h 48 % 0 mm
14:50 16.2 °C 4.8 °C 1024.9 hPa NW 1.9 km/h 1.9 km/h 47 % 0 mm
14:55 16.2 °C 5.1 °C 1024.9 hPa NW 3.7 km/h 3.7 km/h 48 % 0 mm
14:56 16.2 °C 5.1 °C 1024.9 hPa NW 3.7 km/h 3.7 km/h 48 % 0 mm
15:01 16.2 °C 5.1 °C 1024.9 hPa NW 3.2 km/h 3.2 km/h 48 % 0 mm
15:02 16.2 °C 4.8 °C 1024.9 hPa NW 3.7 km/h 3.7 km/h 47 % 0 mm
15:07 16.2 °C 4.8 °C 1024.9 hPa NW 3.7 km/h 3.7 km/h 47 % 0 mm
15:08 16.2 °C 4.8 °C 1024.9 hPa WNW 4.8 km/h 4.8 km/h 47 % 0 mm
15:09 16.2 °C 4.8 °C 1024.9 hPa NW 5.6 km/h 5.6 km/h 47 % 0 mm
15:11 16.2 °C 4.8 °C 1024.9 hPa NW 5.6 km/h 5.6 km/h 47 % 0 mm
15:14 16.1 °C 5.1 °C 1024.9 hPa NW 3.7 km/h 3.7 km/h 48 % 0 mm
15:19 16.1 °C 5.3 °C 1024.9 hPa WNW 3.7 km/h 3.7 km/h 49 % 0 mm
15:20 16.1 °C 5.3 °C 1024.9 hPa NW 1.9 km/h 1.9 km/h 49 % 0 mm
15:23 16.1 °C 5.1 °C 1024.9 hPa NW 5.6 km/h 5.6 km/h 48 % 0 mm
15:27 16 °C 5 °C 1024.9 hPa NW 5.6 km/h 5.6 km/h 48 % 0 mm
15:29 16 °C 5 °C 1024.9 hPa NW 3.7 km/h 3.7 km/h 48 % 0 mm
15:33 15.9 °C 5.2 °C 1024.9 hPa NW 3.7 km/h 3.7 km/h 49 % 0 mm
15:35 15.9 °C 5.5 °C 1024.9 hPa NW 1.9 km/h 1.9 km/h 50 % 0 mm
15:38 15.9 °C 5.2 °C 1024.9 hPa NW 1.9 km/h 1.9 km/h 49 % 0 mm
15:43 15.8 °C 5.1 °C 1024.6 hPa NW 1.9 km/h 1.9 km/h 49 % 0 mm
15:44 15.8 °C 5.4 °C 1024.6 hPa NW 1.9 km/h   50 % 0 mm
15:49 15.7 °C 5.6 °C 1024.6 hPa Calm     51 % 0 mm
15:51 15.6 °C 5.2 °C 1024.6 hPa Calm     50 % 0 mm
15:53 15.6 °C 5.2 °C 1024.6 hPa Calm     50 % 0 mm
15:56 15.5 °C 5.1 °C 1024.6 hPa Calm     50 % 0 mm
16:01 15.4 °C 5 °C 1024.6 hPa Calm     50 % 0 mm
16:03 15.4 °C 5 °C 1024.3 hPa Calm     50 % 0 mm
16:08 15.3 °C 5.2 °C 1024.6 hPa Calm     51 % 0 mm
16:14 15.1 °C 5.6 °C 1024.6 hPa Calm     53 % 0 mm
16:15 14.9 °C 5.4 °C 1024.6 hPa Calm     53 % 0 mm
16:20 14.7 °C 5.5 °C 1024.6 hPa Calm     54 % 0 mm
16:21 14.7 °C 5.4 °C 1024.6 hPa Calm     54 % 0 mm
16:26 14.4 °C 5.5 °C 1024.6 hPa Calm     55 % 0 mm
16:27 14.4 °C 5.4 °C 1024.6 hPa Calm     55 % 0 mm
16:29 14.3 °C 5.7 °C 1024.6 hPa Calm     56 % 0 mm
16:33 14 °C 5.3 °C 1024.6 hPa Calm     56 % 0 mm
16:38 13.7 °C 5.3 °C 1024.3 hPa Calm     57 % 0 mm
16:39 13.7 °C 5.3 °C 1024.3 hPa Calm     57 % 0 mm
16:44 13.2 °C 5.4 °C 1024.6 hPa Calm     59 % 0 mm
16:48 12.9 °C 5.3 °C 1024.6 hPa Calm     60 % 0 mm
16:53 12.6 °C 5.1 °C 1024.6 hPa Calm     60 % 0 mm
16:58 12.5 °C 5.2 °C 1024.3 hPa Calm     61 % 0 mm
17:03 12.2 °C 5.2 °C 1024.3 hPa Calm     62 % 0 mm
17:04 12.2 °C 5.1 °C 1024.3 hPa Calm     62 % 0 mm
17:09 11.8 °C 5.2 °C 1024.6 hPa Calm     64 % 0 mm
17:10 11.8 °C 5.2 °C 1024.3 hPa Calm     64 % 0 mm
17:17 11.4 °C 5.1 °C 1024.3 hPa Calm     65 % 0 mm
17:20 11.2 °C 5.6 °C 1024.3 hPa Calm     68 % 0 mm
17:22 11.1 °C 5.8 °C 1024.3 hPa Calm     70 % 0 mm
17:27 10.9 °C 5.6 °C 1024.3 hPa Calm     70 % 0 mm
17:28 10.9 °C 5.7 °C 1024.3 hPa Calm     70 % 0 mm
17:29 10.9 °C 5.6 °C 1024.3 hPa Calm     70 % 0 mm
17:34 10.8 °C 5.3 °C 1024.3 hPa Calm     69 % 0 mm
17:35 10.7 °C 5.3 °C 1024.3 hPa Calm     69 % 0 mm
17:40 10.5 °C 5.4 °C 1024.3 hPa Calm     71 % 0 mm
17:45 10.2 °C 5.2 °C 1024.6 hPa Calm     71 % 0 mm
17:46 10.2 °C 5.2 °C 1024.6 hPa Calm     71 % 0 mm
17:47 10.1 °C 5.1 °C 1024.6 hPa Calm     71 % 0 mm
17:52 9.9 °C 5.1 °C 1024.6 hPa Calm     72 % 0 mm
17:55 9.8 °C 4.9 °C 1024.6 hPa Calm     72 % 0 mm
17:58 9.6 °C 5 °C 1024.6 hPa Calm     73 % 0 mm
18:01 9.5 °C 5.1 °C 1024.6 hPa Calm     74 % 0 mm
18:06 9.4 °C 5.2 °C 1024.3 hPa Calm     75 % 0 mm
18:07 9.4 °C 5.2 °C 1024.3 hPa Calm     75 % 0 mm
18:12 9.5 °C 5.1 °C 1024.6 hPa Calm     74 % 0 mm
18:13 9.4 °C 5.2 °C 1024.6 hPa Calm     75 % 0 mm
18:18 9.1 °C 4.9 °C 1024.6 hPa Calm     75 % 0 mm
18:19 9.1 °C 4.9 °C 1024.6 hPa Calm     75 % 0 mm
18:24 8.9 °C 4.9 °C 1024.6 hPa Calm     76 % 0 mm
18:25 8.8 °C 4.8 °C 1024.6 hPa Calm     76 % 0 mm
18:30 8.7 °C 4.7 °C 1024.9 hPa Calm     76 % 0 mm
18:31 8.7 °C 4.8 °C 1024.9 hPa Calm     77 % 0 mm
18:36 8.7 °C 4.8 °C 1024.9 hPa Calm     77 % 0 mm
18:38 8.7 °C 4.9 °C 1024.9 hPa Calm     77 % 0 mm
18:43 8.8 °C 4.8 °C 1024.9 hPa Calm     76 % 0 mm
18:46 8.7 °C 4.7 °C 1024.9 hPa Calm     76 % 0 mm
18:51 8.6 °C 4.8 °C 1024.9 hPa Calm     77 % 0 mm
18:54 8.6 °C 4.8 °C 1024.9 hPa Calm     77 % 0 mm
18:55 8.6 °C 4.8 °C 1024.9 hPa Calm     77 % 0 mm
18:59 8.6 °C 4.8 °C 1024.9 hPa Calm     77 % 0 mm
19:04 8.5 °C 4.7 °C 1024.9 hPa Calm     77 % 0 mm
19:06 8.4 °C 4.7 °C 1024.9 hPa Calm     77 % 0 mm
19:11 8.4 °C 4.4 °C 1025.3 hPa Calm     76 % 0 mm
19:17 8.3 °C 4.3 °C 1025.3 hPa Calm     76 % 0 mm
19:19 8.2 °C 4.2 °C 1025.3 hPa Calm     76 % 0 mm
19:22 8.1 °C 4.3 °C 1025.3 hPa Calm     77 % 0 mm
19:27 8.2 °C 4.4 °C 1025.3 hPa Calm     77 % 0 mm
19:29 8.3 °C 4.6 °C 1025.3 hPa Calm     77 % 0 mm
19:34 8.4 °C 4.4 °C 1025.3 hPa Calm     76 % 0 mm
19:35 8.3 °C 4.3 °C 1025.3 hPa Calm     76 % 0 mm
19:40 8.3 °C 4.3 °C 1025.3 hPa Calm     76 % 0 mm
19:41 8.3 °C 4.3 °C 1025.3 hPa Calm     76 % 0 mm
19:47 8.3 °C 4.3 °C 1025.3 hPa Calm     76 % 0 mm
19:50 8.3 °C 4.3 °C 1025.3 hPa Calm     76 % 0 mm
19:54 8.2 °C 4.2 °C 1025.3 hPa Calm     76 % 0 mm
19:58 8 °C 4 °C 1025.3 hPa Calm     76 % 0 mm
20:02 7.8 °C 4 °C 1025.6 hPa Calm     77 % 0 mm
20:07 7.6 °C 3.9 °C 1025.3 hPa Calm     78 % 0 mm
20:08 7.6 °C 4 °C 1025.3 hPa Calm     78 % 0 mm
20:13 7.8 °C 4.2 °C 1025.3 hPa Calm     78 % 0 mm
20:18 8.3 °C 4.3 °C 1024.9 hPa East 1.9 km/h 1.9 km/h 76 % 0 mm
20:19 8.3 °C 4.3 °C 1024.9 hPa East 1.9 km/h 1.9 km/h 76 % 0 mm
20:23 8.5 °C 4.3 °C 1025.3 hPa Calm     75 % 0 mm
20:24 8.5 °C 4.3 °C 1025.3 hPa Calm     75 % 0 mm
20:29 8.5 °C 4.3 °C 1025.3 hPa Calm     75 % 0 mm
20:30 8.5 °C 4.3 °C 1025.3 hPa Calm     75 % 0 mm
20:35 8.2 °C 4.1 °C 1025.3 hPa Calm     75 % 0 mm
20:39 7.9 °C 3.9 °C 1025.3 hPa Calm     76 % 0 mm
20:40 7.8 °C 3.9 °C 1025.3 hPa Calm     76 % 0 mm
20:45 7.6 °C 3.8 °C 1024.9 hPa Calm     77 % 0 mm
20:47 7.5 °C 3.9 °C 1024.9 hPa Calm     78 % 0 mm
20:52 7.1 °C 3.7 °C 1025.3 hPa Calm     79 % 0 mm
20:53 7.1 °C 3.7 °C 1025.3 hPa Calm     79 % 0 mm
20:57 6.8 °C 3.6 °C 1025.3 hPa Calm     80 % 0 mm
21:00 6.7 °C 3.4 °C 1025.3 hPa Calm     80 % 0 mm
21:04 6.4 °C 3.2 °C 1025.3 hPa Calm     80 % 0 mm
21:09 6.3 °C 3.3 °C 1025.3 hPa Calm     81 % 0 mm
21:13 6.3 °C 3.3 °C 1025.3 hPa Calm     81 % 0 mm
21:18 6.3 °C 3.5 °C 1025.3 hPa Calm     82 % 0 mm
21:20 6.4 °C 3.6 °C 1025.3 hPa Calm     82 % 0 mm
21:23 6.5 °C 3.5 °C 1025.3 hPa Calm     81 % 0 mm
21:26 6.5 °C 3.5 °C 1025.3 hPa Calm     81 % 0 mm
21:31 6.5 °C 3.5 °C 1025.3 hPa Calm     81 % 0 mm
21:34 6.5 °C 3.5 °C 1024.9 hPa Calm     81 % 0 mm
21:38 6.4 °C 3.2 °C 1024.9 hPa Calm     80 % 0 mm
21:40 6.3 °C 3.3 °C 1024.9 hPa Calm     81 % 0 mm
21:46 6.3 °C 3.3 °C 1025.3 hPa Calm     81 % 0 mm
21:48 6.3 °C 3.3 °C 1025.3 hPa Calm     81 % 0 mm
21:53 6.2 °C 3.2 °C 1025.3 hPa Calm     81 % 0 mm
21:55 6.1 °C 3.3 °C 1025.3 hPa Calm     82 % 0 mm
22:00 6.1 °C 3.3 °C 1025.3 hPa Calm     82 % 0 mm
22:01 6.1 °C 3.3 °C 1025.3 hPa Calm     82 % 0 mm
22:06 6 °C 3.2 °C 1025.3 hPa Calm     82 % 0 mm
22:16 5.6 °C 2.9 °C 1026 hPa Calm     83 % 0 mm
22:18 5.6 °C 2.9 °C 1026 hPa Calm     83 % 0 mm
22:21 5.5 °C 2.8 °C 1026 hPa Calm     83 % 0 mm
22:25 5.4 °C 2.7 °C 1025.6 hPa Calm     83 % 0 mm
22:30 5.4 °C 2.9 °C 1025.6 hPa Calm     84 % 0 mm
22:31 5.4 °C 2.9 °C 1025.6 hPa Calm     84 % 0 mm
22:35 5.6 °C 3.1 °C 1025.6 hPa Calm     84 % 0 mm
22:36 5.7 °C 3 °C 1025.6 hPa Calm     83 % 0 mm
22:41 5.7 °C 3 °C 1025.6 hPa Calm     83 % 0 mm
22:46 5.7 °C 3.1 °C 1026 hPa Calm     83 % 0 mm
22:47 5.7 °C 3.1 °C 1026 hPa Calm     83 % 0 mm
22:52 5.8 °C 3.1 °C 1026 hPa Calm     83 % 0 mm
22:57 5.7 °C 2.9 °C 1026 hPa Calm     82 % 0 mm
22:58 5.7 °C 2.9 °C 1026 hPa Calm     82 % 0 mm
23:03 5.6 °C 2.7 °C 1026 hPa Calm     82 % 0 mm
23:06 5.4 °C 2.8 °C 1026.3 hPa Calm     83 % 0 mm
23:11 5.2 °C 2.5 °C 1026.3 hPa Calm     83 % 0 mm
23:15 5.1 °C 2.6 °C 1026.3 hPa Calm     84 % 0 mm
23:20 5.1 °C 2.8 °C 1026.3 hPa Calm     85 % 0 mm
23:21 5.1 °C 2.8 °C 1026.3 hPa Calm     85 % 0 mm
23:24 5.2 °C 2.9 °C 1026.3 hPa Calm     85 % 0 mm
23:29 5.3 °C 2.8 °C 1026.3 hPa East 1.9 km/h   84 % 0 mm
23:31 5.3 °C 2.8 °C 1026.6 hPa East 1.9 km/h 1.9 km/h 84 % 0 mm
23:36 5.3 °C 2.8 °C 1027 hPa Calm   0.2 km/h 84 % 0 mm
23:41 5.3 °C 2.8 °C 1027 hPa Calm     84 % 0 mm
23:42 5.3 °C 2.8 °C 1026.6 hPa Calm     84 % 0 mm
23:43 5.3 °C 2.8 °C 1027 hPa Calm     84 % 0 mm
23:48 5.3 °C 2.8 °C 1027 hPa Calm     84 % 0 mm
23:52 5.2 °C 2.7 °C 1027 hPa Calm     84 % 0 mm
23:57 5.1 °C 2.6 °C 1026.6 hPa Calm     84 % 0 mm
23:58 5.1 °C 2.6 °C 1026.6 hPa Calm     84 % 0 mm
Park Place, Exeter, Tulare County, California, USA
Compliments of Weather Underground - 3.5 mb